CheckWX is a tool to help pilots better visualize weather data.  It is not intended as a substitute for an official pre-flight weather briefing.

02:56:07 UTC

ENOA METAR
Oseberg A Platform Heliport
Norway
Current

1 hour ago

ENOA 180150Z 25031KT 9999 FEW015TCU 07/04 Q0986 W///S6
Observed
Feb-18 @ 01:50 UTC
Wind
  • 250° at 31 KTS
Visibility
10,000+ meters
Flight Rules
VFR
Cloud Levels
  • Few at 1,500' AGL
Temperature
C / 45°F
Dewpoint
C / 39°F
Humidity
81%
Altimeter
29.11" Hg
Pressure
985.92 hPa
Previous

2 hours ago

ENOA 180050Z 24031KT 9999 FEW015TCU SCT100 07/04 Q0984 W///S6
Observed
Feb-18 @ 00:50 UTC
Wind
  • 240° at 31 KTS
Visibility
10,000+ meters
Flight Rules
VFR
Cloud Levels
  • Few at 1,500' AGL
  • Scattered at 10,000' AGL
Temperature
C / 45°F
Dewpoint
C / 39°F
Humidity
81%
Altimeter
29.06" Hg
Pressure
983.92 hPa
Previous

3 hours ago

ENOA 172350Z 24033KT 9999 FEW015TCU SCT120 07/04 Q0984 W///S6
Observed
Feb-17 @ 23:50 UTC
Wind
  • 240° at 33 KTS
Visibility
10,000+ meters
Flight Rules
VFR
Cloud Levels
  • Few at 1,500' AGL
  • Scattered at 12,000' AGL
Temperature
C / 45°F
Dewpoint
C / 39°F
Humidity
81%
Altimeter
29.06" Hg
Pressure
983.92 hPa